PWSweather.com
Personal Weather Stations
Station Observations
WISCHPK61
Green Bay Schmitt Park, Green Bay, WI 54311

Green Bay Schmitt ParkGreen Bay, WI 54311

Lat: 44.514277, Lon: -87.935067

Elevation: 735

Station Type: Acu Rite Pro Weather Center model 02032C

http://greenbayweathercam.com

High Low Average
Temperature 8.4°F-13.1°C -8.3°F-22.4°C -1.5°F-18.6°C
Dew Point 6.5°F-14.2°C -10.9°F-23.8°C -4.0°F-20.0°C
Winds Calm Calm Calm Calm Calm WSWCalm WSW
Wind Gusts 2.3 mph3.7 kmh -- --
Humidity 99% 54% 90%
Pressure 29.38 in994.9 mb 29.21 in989.2 mb -
Precipitation 0.00 in0.0 mm - -
Hour Temp Dew Point Humidity Winds Wind Gusts Pressure Precip Precip Rate Daily Precip Total
12:00 AM -0.9°F-18.3°C -1.1°F-18.4°C 99% Calm Calm -- 29.21 in989.2 mb - 0.00 in0.0 mm 0.00 in0.0 mm
01:00 AM -1.1°F-18.4°C -1.3°F-18.5°C 99% Calm Calm -- 29.22 in989.5 mb - 0.00 in0.0 mm 0.00 in0.0 mm
02:00 AM -2.2°F-19.0°C -2.4°F-19.1°C 99% Calm Calm -- 29.24 in990.2 mb - 0.00 in0.0 mm 0.00 in0.0 mm
03:00 AM -2.7°F-19.3°C -7.3°F-21.8°C 80% Calm Calm -- 29.26 in990.9 mb - 0.00 in0.0 mm 0.00 in0.0 mm
04:00 AM -3.6°F-19.8°C -3.8°F-19.9°C 99% Calm Calm -- 29.28 in991.5 mb - 0.00 in0.0 mm 0.00 in0.0 mm
05:00 AM -5.4°F-20.8°C -5.6°F-20.9°C 99% Calm Calm -- 29.30 in992.2 mb - 0.00 in0.0 mm 0.00 in0.0 mm
06:00 AM -6.5°F-21.4°C -6.7°F-21.5°C 99% Calm Calm -- 29.32 in992.9 mb - 0.00 in0.0 mm 0.00 in0.0 mm
07:00 AM -7.6°F-22.0°C -10.4°F-23.6°C 87% Calm Calm -- 29.34 in993.6 mb - 0.00 in0.0 mm 0.00 in0.0 mm
08:00 AM -8.3°F-22.4°C -8.5°F-22.5°C 99% Calm Calm -- 29.37 in994.6 mb - 0.00 in0.0 mm 0.00 in0.0 mm
09:00 AM -5.6°F-20.9°C -5.8°F-21.0°C 99% Calm Calm -- 29.38 in994.9 mb - 0.00 in0.0 mm 0.00 in0.0 mm
10:00 AM -1.2°F-18.4°C -9.5°F-23.1°C 67% Calm Calm -- 29.38 in994.9 mb - 0.00 in0.0 mm 0.00 in0.0 mm
11:00 AM 2.5°F-16.4°C 2.3°F-16.5°C 99% Calm Calm -- 29.38 in994.9 mb - 0.00 in0.0 mm 0.00 in0.0 mm
12:00 PM 6.7°F-14.1°C 6.5°F-14.2°C 99% Calm Calm -- 29.37 in994.6 mb - 0.00 in0.0 mm 0.00 in0.0 mm
01:00 PM 8.4°F-13.1°C -4.9°F-20.5°C 54% Calm Calm 2.3 mph3.7 kmh 29.35 in993.9 mb - 0.00 in0.0 mm 0.00 in0.0 mm
02:00 PM 6.7°F-14.1°C 6.4°F-14.2°C 99% Calm Calm -- 29.34 in993.6 mb - 0.00 in0.0 mm 0.00 in0.0 mm
03:00 PM 3.4°F-15.9°C -5.1°F-20.6°C 67% Calm Calm -- 29.33 in993.2 mb - 0.00 in0.0 mm 0.00 in0.0 mm
04:00 PM 1.6°F-16.9°C -10.9°F-23.8°C 55% Calm Calm -- 29.33 in993.2 mb - 0.00 in0.0 mm 0.00 in0.0 mm
05:00 PM -1.3°F-18.5°C -1.5°F-18.6°C 99% Calm Calm -- 29.32 in992.9 mb - 0.00 in0.0 mm 0.00 in0.0 mm
06:00 PM -4.2°F-20.1°C -4.4°F-20.2°C 99% Calm Calm -- 29.32 in992.9 mb - 0.00 in0.0 mm 0.00 in0.0 mm
07:00 PM -2.7°F-19.3°C -7.6°F-22.0°C 79% Calm Calm -- 29.32 in992.9 mb - 0.00 in0.0 mm 0.00 in0.0 mm
08:00 PM -3.3°F-19.6°C -3.5°F-19.7°C 99% Calm Calm -- 29.31 in992.6 mb - 0.00 in0.0 mm 0.00 in0.0 mm
09:00 PM -3.8°F-19.9°C -7.7°F-22.1°C 83% Calm Calm -- 29.31 in992.6 mb - 0.00 in0.0 mm 0.00 in0.0 mm
10:00 PM -2.6°F-19.2°C -2.8°F-19.3°C 99% Calm Calm -- 29.27 in991.2 mb - 0.00 in0.0 mm 0.00 in0.0 mm
11:00 PM -1.3°F-18.5°C -1.5°F-18.6°C 99% Calm Calm -- 29.28 in991.5 mb - 0.00 in0.0 mm 0.00 in0.0 mm